Terminal Aerodrome Forecast
Issued by NWS Green Bay, WI

Home | Current Version | Previous Version | Text Only | Print | Product List | Glossary Off
Versions: 1 2 3 4 5 6 7 8 9 10 11 12 13 14 15 16 17 18 19 20 21 22 23 24

000
FTUS43 KGRB 162003 AAA
TAFGRB
TAF AMD
KGRB 162003Z 1620/1718 02008KT P6SM BKN030
     FM162300 04004KT P6SM SCT035 BKN200
     FM170500 10005KT P6SM SCT022 OVC100
     FM170800 16008KT P6SM BKN022 OVC120
     FM171500 17013KT P6SM BKN015 OVC060=

USA.gov is the U.S. government's official web portal to all federal, state and local government web resources and services.